Jindrichuv Hradec, Czech Republic
Current Conditions -  °F | °C
As of 11:00 AM on Saturday 20 Dec 2014 (Local Time) from LKNA Reporting Station
Few Clouds Few Clouds  
Wind Chill: 27°   Ceiling: Unl
Heat Index: 37°   Visibility: 6mi
Dew Point: 32°   Wind: 20mph
Humidity: 81%   Direction: 280°W
Pressure: 30.09"   Gusts: NA
Location:  49.15°N, 14.99°E
Report Text: LKNA 200900Z 28017KT 9999 FEW017 03/00 Q1019 NOSIG
Loading
Personal Weather Stations






























Interactive Weather Map New forecast layout! Learn more

10-Day Weather Forecast

Advertisements
Track Severe Weather on mobile